Time;durP1;ratioP1;P1;durP2;ratioP2;P2;SDS_P1;SDS_P2;PMS_P1;PMS_P2;Temp;Humidity;BMP_temperature;BMP_pressure;BME280_temperature;BME280_humidity;BME280_pressure;Samples;Min_cycle;Max_cycle;Signal;HPM_P1;HPM_P2
2021/03/26 00:00:35;;;;;;;47.47;25.52;;;;;;;10.17;60.13;101507.56;690259;28;1778;-62
2021/03/26 00:00:59;;;;;;;45.17;26.35;;;;;;;10.18;60.28;101504.72;688048;28;61240;-61
2021/03/26 00:01:23;;;;;;;44.00;25.90;;;;;;;10.17;60.23;101508.44;687409;28;92420;-61
2021/03/26 00:01:47;;;;;;;41.22;25.13;;;;;;;10.14;60.04;101499.78;690392;28;68109;-61
2021/03/26 00:02:09;;;;;;;40.67;25.08;;;;;;;10.14;59.97;101506.03;691029;28;15242;-60
2021/03/26 00:02:30;;;;;;;40.20;25.25;;;;;;;10.16;60.06;101508.59;689507;28;31698;-61
2021/03/26 00:02:51;;;;;;;43.97;26.63;;;;;;;10.14;60.30;101505.16;689819;28;21644;-58
2021/03/26 00:03:16;;;;;;;43.35;26.67;;;;;;;10.14;60.21;101510.56;689195;28;36319;-61
2021/03/26 00:03:40;;;;;;;43.70;26.80;;;;;;;10.12;60.10;101507.19;686971;28;92185;-59
2021/03/26 00:04:05;;;;;;;42.38;26.10;;;;;;;10.11;60.46;101506.34;689291;28;37857;-58
2021/03/26 00:04:26;;;;;;;42.30;25.50;;;;;;;10.12;60.36;101504.50;687860;28;81879;-60
2021/03/26 00:04:48;;;;;;;45.88;26.42;;;;;;;10.12;60.17;101504.50;688659;28;45358;-60
2021/03/26 00:05:15;;;;;;;45.17;26.13;;;;;;;10.12;60.53;101510.72;690227;28;8780;-59
2021/03/26 00:05:37;;;;;;;43.28;25.95;;;;;;;10.12;60.44;101505.31;685522;28;137623;-60
2021/03/26 00:06:01;;;;;;;49.30;28.65;;;;;;;10.11;60.35;101509.06;689063;28;46221;-62
2021/03/26 00:06:25;;;;;;;54.25;30.50;;;;;;;10.09;60.33;101505.63;689475;28;38873;-60
2021/03/26 00:06:48;;;;;;;54.83;30.50;;;;;;;10.09;60.48;101503.81;688092;28;69445;-61
2021/03/26 00:07:09;;;;;;;49.97;27.23;;;;;;;10.10;60.25;101510.03;688161;28;69487;-60
2021/03/26 00:07:30;;;;;;;43.90;26.10;;;;;;;10.10;60.26;101510.03;689738;28;23580;-61
2021/03/26 00:07:51;;;;;;;43.33;25.73;;;;;;;10.10;60.37;101507.34;688948;28;47360;-61
2021/03/26 00:08:18;;;;;;;42.65;25.60;;;;;;;10.08;60.08;101507.50;689572;28;38321;-58
2021/03/26 00:08:40;;;;;;;48.60;27.05;;;;;;;10.07;60.49;101507.66;689259;28;46489;-62
2021/03/26 00:09:03;;;;;;;48.53;26.75;;;;;;;10.07;60.58;101510.34;688943;28;46398;-62
2021/03/26 00:09:26;;;;;;;49.33;26.27;;;;;;;10.07;60.55;101513.88;688407;28;58019;-62
2021/03/26 00:09:47;;;;;;;43.63;26.25;;;;;;;10.07;60.42;101515.75;688455;28;69514;-62
2021/03/26 00:10:10;;;;;;;44.85;26.38;;;;;;;10.06;60.30;101514.91;690091;28;22891;-62
2021/03/26 00:10:32;;;;;;;45.35;26.25;;;;;;;10.05;60.59;101515.91;687700;28;70316;-62
2021/03/26 00:10:56;;;;;;;43.45;25.80;;;;;;;10.03;60.57;101517.03;689323;28;38025;-62
2021/03/26 00:11:18;;;;;;;43.30;25.67;;;;;;;10.02;60.38;101512.66;689500;28;23506;-62
2021/03/26 00:11:40;;;;;;;44.65;25.23;;;;;;;10.01;60.68;101516.38;690188;28;45942;-62
2021/03/26 00:12:04;;;;;;;43.28;25.45;;;;;;;9.98;60.45;101514.81;689767;28;32419;-62
2021/03/26 00:12:26;;;;;;;44.72;26.27;;;;;;;9.97;60.54;101513.13;686690;28;115636;-62
2021/03/26 00:12:47;;;;;;;43.22;25.90;;;;;;;9.91;60.61;101509.19;689236;28;44369;-62
2021/03/26 00:13:09;;;;;;;43.22;26.17;;;;;;;9.94;60.51;101513.44;690033;28;13595;-62
2021/03/26 00:13:30;;;;;;;42.25;25.48;;;;;;;9.93;60.70;101514.44;688394;28;44238;-61
2021/03/26 00:13:52;;;;;;;45.45;26.33;;;;;;;9.92;60.96;101508.19;689603;28;16181;-62
2021/03/26 00:14:13;;;;;;;44.72;26.25;;;;;;;9.91;60.82;101511.88;689299;28;38872;-62
2021/03/26 00:14:34;;;;;;;45.85;26.33;;;;;;;9.91;61.17;101511.06;689934;28;23575;-62
2021/03/26 00:14:55;;;;;;;42.72;26.60;;;;;;;9.90;61.03;101517.44;690132;28;21586;-62
2021/03/26 00:15:16;;;;;;;41.03;26.17;;;;;;;9.89;60.79;101513.03;690138;28;17862;-62
2021/03/26 00:15:45;;;;;;;45.20;25.88;;;;;;;9.86;61.13;101514.22;687805;28;60604;-62
2021/03/26 00:16:08;;;;;;;44.47;27.35;;;;;;;9.85;60.88;101520.59;690102;28;14956;-62
2021/03/26 00:16:29;;;;;;;44.75;26.88;;;;;;;9.86;61.24;101510.66;690763;28;884;-61
2021/03/26 00:16:54;;;;;;;46.13;27.25;;;;;;;9.86;61.16;101513.38;689946;28;23141;-62
2021/03/26 00:17:15;;;;;;;50.55;27.98;;;;;;;9.85;61.15;101511.66;686404;28;110211;-62
2021/03/26 00:17:37;;;;;;;49.13;26.88;;;;;;;9.85;61.28;101511.66;690576;28;867;-62
2021/03/26 00:17:58;;;;;;;43.65;26.17;;;;;;;9.84;60.87;101512.66;690007;28;22399;-61
2021/03/26 00:18:20;;;;;;;43.08;25.50;;;;;;;9.84;60.92;101516.22;690862;28;952;-60
2021/03/26 00:18:41;;;;;;;46.10;26.65;;;;;;;9.84;61.33;101515.34;690580;28;5412;-62
2021/03/26 00:19:04;;;;;;;42.10;25.38;;;;;;;9.83;60.84;101508.28;690354;28;10359;-61
2021/03/26 00:19:25;;;;;;;45.80;26.25;;;;;;;9.83;61.04;101510.97;689156;28;43219;-61
2021/03/26 00:19:46;;;;;;;46.10;27.00;;;;;;;9.82;61.08;101517.38;686887;28;22159;-61
2021/03/26 00:20:08;;;;;;;45.15;27.05;;;;;;;9.81;61.28;101513.84;687655;28;10548;-62
2021/03/26 00:20:30;;;;;;;42.50;26.20;;;;;;;9.82;61.08;101515.50;685584;28;61764;-63
2021/03/26 00:20:51;;;;;;;42.65;26.17;;;;;;;9.81;61.17;101516.53;687045;28;19031;-62
2021/03/26 00:21:13;;;;;;;44.97;26.50;;;;;;;9.81;61.00;101510.25;687011;28;22482;-61
2021/03/26 00:21:34;;;;;;;45.50;25.63;;;;;;;9.80;60.92;101509.44;687299;28;29947;-61
2021/03/26 00:21:55;;;;;;;43.03;25.95;;;;;;;9.79;61.02;101517.66;690300;28;9357;-61
2021/03/26 00:22:17;;;;;;;43.55;25.25;;;;;;;9.79;61.29;101518.50;690627;28;1679;-62
2021/03/26 00:22:38;;;;;;;42.10;25.55;;;;;;;9.78;61.19;101513.25;689825;28;27639;-60
2021/03/26 00:22:59;;;;;;;41.20;26.02;;;;;;;9.77;61.41;101514.28;690010;28;23448;-61
2021/03/26 00:23:21;;;;;;;44.83;26.02;;;;;;;9.77;61.10;101511.59;690551;28;4116;-61
2021/03/26 00:23:42;;;;;;;42.03;24.67;;;;;;;9.77;61.29;101511.59;689506;28;16656;-61
2021/03/26 00:24:04;;;;;;;45.05;25.73;;;;;;;9.77;61.26;101511.59;685916;28;46355;-62
2021/03/26 00:24:25;;;;;;;45.80;26.15;;;;;;;9.75;61.23;101511.75;686182;28;46235;-62
2021/03/26 00:24:46;;;;;;;44.35;26.13;;;;;;;9.76;61.11;101513.41;687002;28;23448;-59
2021/03/26 00:25:09;;;;;;;45.95;25.90;;;;;;;9.75;61.16;101519.84;687386;28;18807;-62
2021/03/26 00:25:30;;;;;;;45.40;26.35;;;;;;;9.73;61.35;101509.19;685371;28;69407;-61
2021/03/26 00:25:51;;;;;;;45.67;26.33;;;;;;;9.76;61.50;101509.88;687393;28;19299;-61
2021/03/26 00:26:12;;;;;;;44.05;25.60;;;;;;;9.76;61.52;101516.13;687225;28;22406;-61
2021/03/26 00:26:36;;;;;;;40.25;24.27;;;;;;;9.76;61.36;101509.88;687452;28;997;-62
2021/03/26 00:26:57;;;;;;;41.83;25.38;;;;;;;9.76;61.44;101513.41;686778;28;22179;-61
2021/03/26 00:27:18;;;;;;;48.67;27.23;;;;;;;9.74;61.40;101513.56;687657;28;1777;-62
2021/03/26 00:27:39;;;;;;;44.90;26.88;;;;;;;9.73;61.46;101511.88;687707;28;21535;-61
2021/03/26 00:28:01;;;;;;;46.05;26.08;;;;;;;9.73;61.14;101514.59;686863;28;17834;-59
2021/03/26 00:28:23;;;;;;;43.15;25.85;;;;;;;9.74;61.36;101520.81;688560;28;1992;-57
2021/03/26 00:28:44;;;;;;;43.00;25.45;;;;;;;9.71;61.24;101516.56;688713;28;46287;-61
2021/03/26 00:29:11;;;;;;;43.60;26.20;;;;;;;9.70;61.25;101514.91;690220;28;9943;-56
2021/03/26 00:29:32;;;;;;;39.33;24.88;;;;;;;9.70;61.33;101514.03;683165;28;160734;-60
2021/03/26 00:29:53;;;;;;;39.47;24.70;;;;;;;9.71;61.39;101508.47;688514;28;21942;-58
2021/03/26 00:30:16;;;;;;;43.05;25.75;;;;;;;9.70;61.37;101517.59;687855;28;24441;-60
2021/03/26 00:30:37;;;;;;;45.53;26.33;;;;;;;9.67;61.31;101511.63;686237;28;67608;-59
2021/03/26 00:30:59;;;;;;;43.13;25.08;;;;;;;9.68;61.48;101508.78;688755;28;23449;-60
2021/03/26 00:31:21;;;;;;;42.60;25.15;;;;;;;9.67;61.39;101520.59;687877;28;45369;-59
2021/03/26 00:31:43;;;;;;;43.97;25.17;;;;;;;9.67;61.49;101517.03;688577;28;37087;-58
2021/03/26 00:32:05;;;;;;;42.47;24.42;;;;;;;9.66;61.34;101516.19;688839;28;43125;-60
2021/03/26 00:32:26;;;;;;;47.17;26.60;;;;;;;9.66;61.25;101513.50;689084;28;45313;-56
2021/03/26 00:32:47;;;;;;;46.17;26.10;;;;;;;9.66;61.24;101518.03;689847;28;21525;-58
2021/03/26 00:33:10;;;;;;;44.63;25.52;;;;;;;9.66;61.56;101515.34;690477;28;13313;-60
2021/03/26 00:33:31;;;;;;;46.70;26.20;;;;;;;9.65;61.52;101511.78;688403;28;44612;-60
2021/03/26 00:33:52;;;;;;;47.75;26.25;;;;;;;9.65;61.26;101510.94;690175;28;12091;-59
2021/03/26 00:34:13;;;;;;;44.85;25.98;;;;;;;9.64;61.22;101507.41;689968;28;22423;-59
2021/03/26 00:34:34;;;;;;;46.72;26.45;;;;;;;9.65;61.23;101516.34;689026;28;40401;-60
2021/03/26 00:34:56;;;;;;;45.30;26.58;;;;;;;9.61;61.37;101507.72;690229;28;17718;-58
2021/03/26 00:35:20;;;;;;;44.75;25.88;;;;;;;9.60;61.40;101511.41;690085;28;23336;-58
2021/03/26 00:35:41;;;;;;;46.67;26.15;;;;;;;9.60;61.42;101508.69;686757;28;92346;-61
2021/03/26 00:36:03;;;;;;;45.60;26.48;;;;;;;9.57;61.38;101509.00;689841;28;23691;-58
2021/03/26 00:36:24;;;;;;;44.78;25.88;;;;;;;9.57;61.27;101511.69;688450;28;40404;-59
2021/03/26 00:36:46;;;;;;;42.63;25.67;;;;;;;9.54;61.57;101503.91;688859;28;46478;-59
2021/03/26 00:37:07;;;;;;;43.72;25.98;;;;;;;9.52;61.40;101509.47;689537;28;24444;-60
2021/03/26 00:37:28;;;;;;;43.67;25.92;;;;;;;9.52;61.43;101509.47;693081;28;1041;-62
2021/03/26 00:37:50;;;;;;;44.15;26.50;;;;;;;9.52;61.71;101509.47;692458;28;23457;-59
2021/03/26 00:38:11;;;;;;;44.90;26.55;;;;;;;9.54;61.76;101512.00;691839;28;42213;-58
2021/03/26 00:38:32;;;;;;;44.80;25.98;;;;;;;9.52;61.73;101509.47;691799;28;22329;-62
2021/03/26 00:38:53;;;;;;;42.72;25.67;;;;;;;9.52;61.86;101505.91;692299;28;19637;-60
2021/03/26 00:39:15;;;;;;;46.78;26.58;;;;;;;9.50;61.85;101508.78;692051;28;22429;-59
2021/03/26 00:39:41;;;;;;;45.15;25.88;;;;;;;9.51;62.08;101509.59;688514;28;61964;-61
2021/03/26 00:40:03;;;;;;;44.72;26.30;;;;;;;9.50;61.77;101508.78;687830;28;2810;-59
2021/03/26 00:40:25;;;;;;;43.53;25.63;;;;;;;9.50;62.01;101513.31;684952;28;67464;-60
2021/03/26 00:40:46;;;;;;;44.55;25.75;;;;;;;9.49;62.02;101512.47;685710;28;23370;-59
2021/03/26 00:41:10;;;;;;;48.72;27.17;;;;;;;9.49;61.93;101511.63;688958;28;14377;-61
2021/03/26 00:41:32;;;;;;;46.05;26.50;;;;;;;9.49;61.96;101506.22;687676;28;1022;-61
2021/03/26 00:41:58;;;;;;;46.05;26.00;;;;;;;9.47;61.66;101516.31;687741;28;61725;-61
2021/03/26 00:42:19;;;;;;;47.92;26.17;;;;;;;9.47;62.12;101508.22;689736;28;23520;-61
2021/03/26 00:42:41;;;;;;;48.22;27.10;;;;;;;9.42;62.01;101502.41;686943;28;6327;-60
2021/03/26 00:43:03;;;;;;;45.15;26.25;;;;;;;9.44;61.65;101513.94;687627;28;10098;-62
2021/03/26 00:43:25;;;;;;;45.95;26.20;;;;;;;9.42;61.74;101510.50;686216;28;36940;-61
2021/03/26 00:43:46;;;;;;;46.95;27.10;;;;;;;9.41;61.91;101506.97;685425;28;33980;-62
2021/03/26 00:44:07;;;;;;;43.13;26.10;;;;;;;9.41;61.94;101509.66;686884;28;21523;-61
2021/03/26 00:44:28;;;;;;;45.20;26.05;;;;;;;9.39;62.17;101508.97;687109;28;15399;-62
2021/03/26 00:44:50;;;;;;;46.92;26.20;;;;;;;9.39;62.06;101508.97;686046;28;46337;-61
2021/03/26 00:45:15;;;;;;;48.50;26.52;;;;;;;9.38;62.21;101509.97;687110;28;22388;-62
2021/03/26 00:45:38;;;;;;;43.75;26.02;;;;;;;9.33;61.78;101506.88;680006;28;135617;-62
2021/03/26 00:46:01;;;;;;;48.67;26.38;;;;;;;9.34;61.82;101514.81;685959;28;1049;-61
2021/03/26 00:46:23;;;;;;;48.97;26.45;;;;;;;9.33;61.91;101502.34;684211;28;1763;-62
2021/03/26 00:46:45;;;;;;;44.60;25.90;;;;;;;9.31;61.91;101504.34;682126;28;44405;-62
2021/03/26 00:47:06;;;;;;;46.83;26.02;;;;;;;9.32;62.01;101508.72;682781;28;22486;-62
2021/03/26 00:47:27;;;;;;;47.50;27.00;;;;;;;9.31;62.17;101514.25;683958;28;22475;-61
2021/03/26 00:47:50;;;;;;;43.30;25.52;;;;;;;9.30;62.18;101509.88;686701;28;1055;-62
2021/03/26 00:48:12;;;;;;;42.42;25.23;;;;;;;9.28;62.13;101510.03;687603;28;1914;-62
2021/03/26 00:48:33;;;;;;;44.97;25.30;;;;;;;9.27;61.90;101508.31;685976;28;46243;-62
2021/03/26 00:48:56;;;;;;;43.78;25.60;;;;;;;9.26;61.92;101509.31;688258;28;1747;-62
2021/03/26 00:49:18;;;;;;;46.38;27.10;;;;;;;9.20;61.91;101508.06;690353;28;1130;-62
2021/03/26 00:49:39;;;;;;;46.20;26.75;;;;;;;9.25;61.84;101510.31;688996;28;45333;-61
2021/03/26 00:50:00;;;;;;;42.60;25.77;;;;;;;9.24;62.07;101508.63;690244;28;15950;-62
2021/03/26 00:50:35;;;;;;;44.45;25.92;;;;;;;9.24;62.19;101514.00;687345;28;1513;-61
2021/03/26 00:50:59;;;;;;;44.95;26.10;;;;;;;9.20;62.23;101510.78;685162;28;135451;-62
2021/03/26 00:51:20;;;;;;;44.67;26.08;;;;;;;9.20;62.14;101516.16;687151;28;52375;-62
2021/03/26 00:51:41;;;;;;;46.30;26.63;;;;;;;9.20;62.33;101520.72;688849;28;10972;-60
2021/03/26 00:52:03;;;;;;;44.25;25.30;;;;;;;9.19;62.36;101516.31;687806;28;21566;-62
2021/03/26 00:52:24;;;;;;;48.60;25.83;;;;;;;9.19;62.26;101511.75;689512;28;35437;-62
2021/03/26 00:52:46;;;;;;;44.90;24.90;;;;;;;9.18;62.11;101509.22;690701;28;24726;-62
2021/03/26 00:53:10;;;;;;;42.38;24.77;;;;;;;9.17;62.40;101510.22;687385;28;45321;-62
2021/03/26 00:53:33;;;;;;;45.58;26.48;;;;;;;9.16;62.20;101513.91;685571;28;90151;-61
2021/03/26 00:53:56;;;;;;;43.85;26.27;;;;;;;9.16;62.13;101516.59;688144;28;105615;-62
2021/03/26 00:54:18;;;;;;;43.83;25.30;;;;;;;9.14;62.27;101511.38;691842;28;19990;-62
2021/03/26 00:54:40;;;;;;;46.65;26.23;;;;;;;9.13;62.21;101512.34;688988;28;65636;-62
2021/03/26 00:55:01;;;;;;;46.88;26.35;;;;;;;9.13;62.33;101514.22;687854;28;6003;-63
2021/03/26 00:55:22;;;;;;;44.72;26.50;;;;;;;9.11;62.17;101511.66;683485;28;22355;-62
2021/03/26 00:55:44;;;;;;;44.10;25.50;;;;;;;9.12;62.32;101512.50;682105;28;45052;-62
2021/03/26 00:56:06;;;;;;;45.78;26.00;;;;;;;9.11;62.45;101511.66;678856;29;22856;-61
2021/03/26 00:56:28;;;;;;;42.83;25.17;;;;;;;9.10;62.34;101511.81;682098;28;25044;-61
2021/03/26 00:56:49;;;;;;;47.17;25.92;;;;;;;9.07;62.45;101512.94;685374;28;1013;-61
2021/03/26 00:57:11;;;;;;;42.72;24.60;;;;;;;9.10;62.40;101514.50;687991;28;1458;-60
2021/03/26 00:57:32;;;;;;;40.83;24.40;;;;;;;9.05;62.68;101504.16;689855;28;12779;-62
2021/03/26 00:57:54;;;;;;;42.97;25.10;;;;;;;9.05;62.56;101509.56;687384;28;22410;-61
2021/03/26 00:58:16;;;;;;;45.63;25.50;;;;;;;9.07;62.42;101512.94;685740;28;44328;-61
2021/03/26 00:58:38;;;;;;;42.92;24.83;;;;;;;9.06;62.65;101515.78;681239;28;67542;-60
2021/03/26 00:58:59;;;;;;;44.75;25.30;;;;;;;9.05;62.52;101504.16;681462;29;23484;-61
2021/03/26 00:59:21;;;;;;;42.00;25.50;;;;;;;9.04;62.64;101518.63;679771;29;994;-61
2021/03/26 00:59:43;;;;;;;41.13;25.15;;;;;;;9.02;62.71;101510.69;680772;28;5635;-61
2021/03/26 01:00:06;;;;;;;44.70;25.98;;;;;;;9.01;62.39;101513.53;682777;28;17135;-61
2021/03/26 01:00:31;;;;;;;45.92;25.88;;;;;;;8.99;62.67;101510.16;683282;28;138656;-61
2021/03/26 01:00:54;;;;;;;42.25;26.08;;;;;;;8.96;62.90;101510.44;687442;28;67101;-61
2021/03/26 01:01:16;;;;;;;43.30;26.13;;;;;;;8.95;62.91;101511.44;688900;28;70416;-61
2021/03/26 01:01:38;;;;;;;43.90;26.15;;;;;;;8.90;62.90;101506.47;690508;28;43358;-61
2021/03/26 01:01:59;;;;;;;47.17;27.02;;;;;;;8.92;62.76;101509.03;691797;28;913;-62
2021/03/26 01:02:20;;;;;;;46.97;27.00;;;;;;;8.91;62.95;101513.59;690737;28;1723;-61
2021/03/26 01:02:42;;;;;;;46.65;26.77;;;;;;;8.90;63.15;101503.78;688920;28;16232;-61
2021/03/26 01:03:04;;;;;;;41.47;24.92;;;;;;;8.90;63.22;101511.03;691151;28;46349;-62
2021/03/26 01:03:27;;;;;;;45.00;25.42;;;;;;;8.89;63.08;101509.34;691508;28;23465;-62
2021/03/26 01:03:49;;;;;;;47.15;25.63;;;;;;;8.88;62.91;101508.47;689397;28;111900;-57
2021/03/26 01:04:10;;;;;;;44.58;26.17;;;;;;;8.88;62.97;101504.94;688419;28;46416;-58
2021/03/26 01:04:31;;;;;;;47.88;26.55;;;;;;;8.88;63.06;101507.66;689281;28;15726;-62
2021/03/26 01:04:53;;;;;;;45.22;26.33;;;;;;;8.88;63.13;101507.66;689482;28;10381;-60
2021/03/26 01:05:17;;;;;;;44.38;25.83;;;;;;;8.88;62.97;101507.66;683645;28;21538;-61
2021/03/26 01:05:41;;;;;;;46.67;26.70;;;;;;;8.86;63.28;101510.50;680608;28;90874;-62
2021/03/26 01:06:04;;;;;;;43.92;26.15;;;;;;;8.86;62.98;101509.66;682077;28;114221;-60
2021/03/26 01:06:25;;;;;;;45.15;26.45;;;;;;;8.84;62.96;101505.25;684983;28;70670;-61
2021/03/26 01:06:51;;;;;;;43.05;25.20;;;;;;;8.85;62.82;101511.47;680473;28;137930;-60
2021/03/26 01:07:12;;;;;;;42.65;25.50;;;;;;;8.83;62.94;101508.94;684647;28;38557;-60
2021/03/26 01:07:33;;;;;;;44.15;25.73;;;;;;;8.84;62.69;101507.09;685830;28;23695;-60
2021/03/26 01:07:55;;;;;;;44.72;25.80;;;;;;;8.84;62.88;101507.09;688267;28;24181;-58
2021/03/26 01:08:17;;;;;;;42.83;25.65;;;;;;;8.83;62.80;101505.38;685293;28;44335;-61
2021/03/26 01:08:39;;;;;;;45.83;26.25;;;;;;;8.78;62.75;101494.22;686695;28;46386;-61
2021/03/26 01:09:05;;;;;;;43.90;25.80;;;;;;;8.83;63.00;101502.69;682642;28;134003;-60
2021/03/26 01:09:27;;;;;;;44.17;25.30;;;;;;;8.82;62.68;101501.84;686006;28;1178;-60
2021/03/26 01:09:48;;;;;;;43.47;25.75;;;;;;;8.82;62.70;101501.00;682045;28;46408;-61
2021/03/26 01:10:12;;;;;;;44.47;26.38;;;;;;;8.81;62.79;101508.22;680059;29;22409;-57
2021/03/26 01:10:39;;;;;;;43.33;25.77;;;;;;;8.81;62.79;101508.22;679827;28;135348;-60
2021/03/26 01:11:02;;;;;;;43.83;25.15;;;;;;;8.80;62.74;101506.53;682270;28;90451;-60
2021/03/26 01:11:25;;;;;;;49.17;26.17;;;;;;;8.79;62.72;101502.16;683915;28;69515;-60
2021/03/26 01:11:47;;;;;;;44.38;25.88;;;;;;;8.78;62.78;101502.31;684156;28;69465;-60
2021/03/26 01:12:10;;;;;;;46.33;25.83;;;;;;;8.77;62.76;101500.59;684439;28;43669;-61
2021/03/26 01:12:31;;;;;;;46.25;25.75;;;;;;;8.75;62.71;101502.59;686250;28;46238;-60
2021/03/26 01:12:53;;;;;;;47.92;25.88;;;;;;;8.75;62.91;101506.13;686349;28;20473;-60
2021/03/26 01:13:16;;;;;;;45.50;25.92;;;;;;;8.73;62.90;101502.72;686184;28;32359;-62
2021/03/26 01:13:37;;;;;;;42.35;25.77;;;;;;;8.73;62.99;101502.72;684066;28;83081;-58
2021/03/26 01:13:59;;;;;;;44.60;25.90;;;;;;;8.72;62.85;101503.72;687779;28;17768;-60
2021/03/26 01:14:21;;;;;;;42.03;25.60;;;;;;;8.72;63.16;101503.72;687556;28;1254;-59
2021/03/26 01:14:43;;;;;;;42.63;25.65;;;;;;;8.71;63.18;101502.00;681857;28;43967;-59
2021/03/26 01:15:08;;;;;;;42.53;25.10;;;;;;;8.69;63.30;101498.63;682324;28;47426;-62
2021/03/26 01:15:29;;;;;;;40.30;23.88;;;;;;;8.66;63.34;101498.91;680670;28;93171;-59
2021/03/26 01:15:51;;;;;;;42.10;24.65;;;;;;;8.69;63.25;101500.47;681743;28;44252;-61
2021/03/26 01:16:14;;;;;;;42.60;25.30;;;;;;;8.69;63.31;101503.16;682665;28;46340;-58
2021/03/26 01:16:38;;;;;;;41.83;25.25;;;;;;;8.68;62.99;101504.16;680332;28;92294;-61
2021/03/26 01:16:59;;;;;;;43.88;25.25;;;;;;;8.66;63.26;101499.75;681796;28;46348;-60
2021/03/26 01:17:20;;;;;;;41.95;24.80;;;;;;;8.66;63.28;101498.91;683053;28;46427;-61
2021/03/26 01:17:44;;;;;;;46.72;25.05;;;;;;;8.64;63.25;101501.75;684302;28;41943;-57
2021/03/26 01:18:07;;;;;;;43.90;26.17;;;;;;;8.65;63.26;101503.47;685702;28;44234;-60
2021/03/26 01:18:31;;;;;;;42.45;25.73;;;;;;;8.66;63.14;101504.31;683039;28;93038;-61
2021/03/26 01:18:54;;;;;;;43.40;25.33;;;;;;;8.65;63.21;101502.59;680638;28;115434;-60
2021/03/26 01:19:18;;;;;;;42.92;24.80;;;;;;;8.65;62.97;101500.78;681767;28;22460;-61
2021/03/26 01:19:43;;;;;;;43.75;25.00;;;;;;;8.65;63.08;101506.16;679820;28;161078;-62
2021/03/26 01:20:08;;;;;;;45.53;25.98;;;;;;;8.62;63.28;101501.06;681831;28;82880;-59
2021/03/26 01:20:33;;;;;;;44.97;26.60;;;;;;;8.61;63.12;101502.03;682915;28;113576;-60
2021/03/26 01:20:57;;;;;;;42.40;25.73;;;;;;;8.61;63.27;101502.03;685889;28;115778;-61
2021/03/26 01:21:20;;;;;;;42.63;24.52;;;;;;;8.61;62.71;101502.03;687971;28;67628;-57
2021/03/26 01:21:43;;;;;;;42.88;24.80;;;;;;;8.58;63.18;101499.63;683806;28;115239;-60
2021/03/26 01:22:07;;;;;;;43.40;25.90;;;;;;;8.60;63.33;101503.03;683039;28;73489;-63
2021/03/26 01:22:28;;;;;;;43.63;25.98;;;;;;;8.59;63.02;101498.66;683700;28;23548;-60
2021/03/26 01:22:53;;;;;;;41.55;25.27;;;;;;;8.59;63.28;101504.03;677622;29;101231;-59
2021/03/26 01:23:16;;;;;;;45.42;25.05;;;;;;;8.59;63.27;101504.03;681359;28;933;-60
2021/03/26 01:23:38;;;;;;;41.58;25.00;;;;;;;8.60;63.01;101499.50;679693;28;26759;-58
2021/03/26 01:24:00;;;;;;;40.50;24.77;;;;;;;8.59;63.05;101503.16;679017;28;44392;-58
2021/03/26 01:24:23;;;;;;;43.13;25.40;;;;;;;8.56;63.10;101498.94;681612;28;1033;-60
2021/03/26 01:24:47;;;;;;;42.70;24.83;;;;;;;8.56;62.98;101500.81;676319;29;91917;-61
2021/03/26 01:25:15;;;;;;;46.65;25.60;;;;;;;8.56;63.05;101498.94;681119;28;81392;-62
2021/03/26 01:25:41;;;;;;;43.78;25.05;;;;;;;8.55;63.11;101501.78;681974;28;136078;-62
2021/03/26 01:26:34;;;;;;;41.10;24.85;;;;;;;8.56;63.33;101503.50;681540;28;125642;-62
2021/03/26 01:27:12;;;;;;;43.38;24.95;;;;;;;8.56;63.22;101501.63;679073;28;131168;-62
2021/03/26 01:27:38;;;;;;;44.08;25.58;;;;;;;8.55;63.28;101501.78;681151;28;103313;-59
2021/03/26 01:28:08;;;;;;;41.88;24.98;;;;;;;8.51;63.23;101487.78;682740;28;62184;-62
2021/03/26 01:28:30;;;;;;;41.30;25.07;;;;;;;8.54;63.18;101497.38;686551;28;69510;-62
2021/03/26 01:29:11;;;;;;;44.23;26.40;;;;;;;8.53;63.18;101493.84;686200;28;121521;-62
2021/03/26 01:29:40;;;;;;;44.22;26.38;;;;;;;8.53;63.31;101496.53;682852;28;128740;-62
2021/03/26 01:30:07;;;;;;;43.13;25.70;;;;;;;8.49;63.36;101492.44;684267;28;62081;-62
2021/03/26 01:30:30;;;;;;;44.58;25.40;;;;;;;8.51;63.14;101500.38;678835;28;106078;-62
2021/03/26 01:30:52;;;;;;;42.75;25.25;;;;;;;8.50;63.19;101498.69;677193;29;66354;-62
2021/03/26 01:31:13;;;;;;;48.42;26.38;;;;;;;8.50;63.26;101501.38;678301;29;45148;-61
2021/03/26 01:31:35;;;;;;;44.85;25.88;;;;;;;8.48;63.20;101499.66;681234;28;12217;-62
2021/03/26 01:31:58;;;;;;;46.13;25.73;;;;;;;8.47;63.32;101491.75;678117;28;93140;-62
2021/03/26 01:32:20;;;;;;;44.58;25.83;;;;;;;8.42;63.41;101492.13;683109;28;1731;-61
2021/03/26 01:32:42;;;;;;;45.63;25.23;;;;;;;8.44;63.58;101490.16;685361;28;5443;-61
2021/03/26 01:33:04;;;;;;;43.08;25.42;;;;;;;8.43;63.39;101496.56;682185;28;46009;-62
2021/03/26 01:33:26;;;;;;;43.40;25.58;;;;;;;8.43;63.36;101498.38;683167;28;45262;-62
2021/03/26 01:33:48;;;;;;;45.70;26.38;;;;;;;8.42;63.60;101494.81;682935;28;37940;-62
2021/03/26 01:34:09;;;;;;;43.78;25.98;;;;;;;8.41;63.64;101498.50;686472;28;43704;-61
2021/03/26 01:34:36;;;;;;;41.45;24.67;;;;;;;8.40;63.68;101491.44;682482;28;139088;-62
2021/03/26 01:34:59;;;;;;;48.00;26.27;;;;;;;8.39;63.67;101491.59;686476;28;69472;-61
2021/03/26 01:35:21;;;;;;;47.78;26.65;;;;;;;8.40;63.59;101490.56;689941;28;2104;-62
2021/03/26 01:35:43;;;;;;;44.47;25.92;;;;;;;8.40;63.90;101496.81;687572;28;41518;-62
2021/03/26 01:36:06;;;;;;;39.00;24.92;;;;;;;8.41;64.02;101486.91;685454;28;69788;-62
2021/03/26 01:36:27;;;;;;;45.60;26.55;;;;;;;8.39;63.65;101489.72;684777;28;46459;-62
2021/03/26 01:36:48;;;;;;;46.45;26.42;;;;;;;8.39;63.95;101499.66;688756;28;22402;-62
2021/03/26 01:37:11;;;;;;;46.33;26.50;;;;;;;8.37;63.75;101496.25;685254;28;69479;-61
2021/03/26 01:37:45;;;;;;;47.33;26.75;;;;;;;8.37;63.74;101490.84;678799;28;158960;-62
2021/03/26 01:38:07;;;;;;;44.58;25.75;;;;;;;8.37;63.75;101494.41;683352;28;46292;-62
2021/03/26 01:38:36;;;;;;;43.88;25.65;;;;;;;8.37;64.03;101491.72;682815;28;137915;-62
2021/03/26 01:39:04;;;;;;;44.33;25.08;;;;;;;8.36;63.99;101491.88;683947;28;61667;-62
2021/03/26 01:39:25;;;;;;;44.08;25.67;;;;;;;8.38;63.76;101492.56;681710;28;66744;-62
2021/03/26 01:39:51;;;;;;;43.33;25.10;;;;;;;8.38;64.00;101498.78;681420;28;138454;-62
2021/03/26 01:40:18;;;;;;;43.42;25.50;;;;;;;8.37;63.96;101496.25;685568;28;965;-62
2021/03/26 01:40:43;;;;;;;42.80;25.27;;;;;;;8.37;63.98;101496.25;679160;28;115233;-61
2021/03/26 01:41:06;;;;;;;43.42;26.08;;;;;;;8.37;64.11;101496.25;684038;28;84297;-62
2021/03/26 01:41:33;;;;;;;42.92;25.33;;;;;;;8.36;64.13;101498.09;684875;28;70282;-62
2021/03/26 01:41:57;;;;;;;44.22;25.30;;;;;;;8.34;63.90;101493.84;682429;28;137950;-62
2021/03/26 01:42:21;;;;;;;45.93;26.47;;;;;;;8.35;63.97;101491.00;685282;28;69429;-62
2021/03/26 01:42:43;;;;;;;42.90;24.77;;;;;;;8.36;64.09;101500.78;684654;28;69910;-62
2021/03/26 01:43:06;;;;;;;45.58;25.15;;;;;;;8.34;63.86;101494.72;683711;28;46274;-62
2021/03/26 01:43:30;;;;;;;42.38;24.73;;;;;;;8.36;63.74;101498.09;679928;29;67282;-61
2021/03/26 01:43:52;;;;;;;41.42;25.13;;;;;;;8.36;64.00;101506.16;680590;28;93392;-62
2021/03/26 01:44:15;;;;;;;41.55;25.13;;;;;;;8.35;63.93;101495.53;680528;29;42444;-62
2021/03/26 01:44:36;;;;;;;43.42;25.77;;;;;;;8.33;63.79;101495.69;680855;28;69374;-62
2021/03/26 01:45:11;;;;;;;43.95;25.27;;;;;;;8.34;63.90;101493.84;679557;28;135907;-61
2021/03/26 01:45:43;;;;;;;43.15;25.73;;;;;;;8.34;63.92;101497.41;684548;28;137525;-62
2021/03/26 01:46:06;;;;;;;43.85;25.52;;;;;;;8.34;64.01;101500.09;685760;28;45282;-62
2021/03/26 01:46:27;;;;;;;42.35;25.65;;;;;;;8.32;64.01;101496.66;684533;28;69440;-61
2021/03/26 01:46:50;;;;;;;45.78;25.88;;;;;;;8.34;63.76;101496.53;682292;28;67504;-62